Rotterdam — PDGS — position and weather

sailwx.info

Track history (hours):
 
Tides and Currents Weather Stations Pressure Air Temp Water Temp Dewpoint Dewpoint Depression Visibility Wind Speed Wind Dir Waves Ship Positions

Rotterdam

Operator: Holland America Line

Last reported at 2019-Sep-21 00:00 UTC. Time now 2019-Sep-21 00:30 UTC.
Position N 52°29' E 004°13'.

Length 228 m; beam 29 m.

Type: Ship. MMSI: 24616700.

Date/timePositionNaut miles runAvg speedWind from/ knotsBaromVisibWave heightAir tempDewpointWater temp
2019-Sep-21 00:00N 52°29' E 004°13'714.2
2019-Sep-20 23:30N 52°34' E 004°05'714.7
2019-Sep-20 23:01N 52°40' E 003°57'713.7
2019-Sep-20 22:30N 52°46' E 003°59'714.3
2019-Sep-20 22:00N 52°54' E 003°59'714.2
2019-Sep-20 21:30N 52°60' E 004°05'815.2
2019-Sep-20 21:00N 53°05' E 004°14'815.5
2019-Sep-20 20:30N 53°10' E 004°24'815.1
2019-Sep-20 20:00N 53°17' E 004°28'715.0
2019-Sep-20 19:30N 53°24' E 004°32'815.9
2019-Sep-20 18:58N 53°32' E 004°36'715.2
2019-Sep-20 18:29N 53°39' E 004°40'1114.2
2019-Sep-20 17:40N 53°50' E 004°48'515.4
2019-Sep-20 17:21N 53°54' E 004°52'515.3
2019-Sep-20 17:00N 53°59' E 004°56'1101.7
2019-Sep-20 17:00N 54°00' E 004°54'815.4 280 / 151027.910.8 16.1 5.718.0
2019-Sep-20 16:30N 54°07' E 005°01'916.0
2019-Sep-20 15:57N 54°14' E 005°08'1314.1
2019-Sep-20 15:00N 54°24' E 005°24'8916.5 280 / 151027.910.8 16.1 5.718.0
2019-Sep-20 09:35N 55°43' E 006°36'216.3
2019-Sep-20 09:27N 55°45' E 006°37'716.3
2019-Sep-20 09:00N 55°52' E 006°44'816.0
2019-Sep-20 08:29N 55°59' E 006°50'816.6
2019-Sep-20 08:00N 56°06' E 006°57'916.4
2019-Sep-20 07:28N 56°14' E 007°02'816.2
2019-Sep-20 07:00N 56°21' E 007°09'816.3
2019-Sep-20 06:30N 56°28' E 007°18'4 8.1
2019-Sep-20 06:00N 56°30' E 007°24'53652.7 290 / 251023.710.8 13.1 8.015.0
2019-Sep-20 05:59N 56°35' E 007°25'815.8
2019-Sep-20 05:30N 56°42' E 007°31'712.9
2019-Sep-20 05:00N 56°48' E 007°36'21228.9 300 / 331022.910.8 13.1 7.118.5
2019-Sep-20 04:59N 56°49' E 007°38'816.4
2019-Sep-20 04:30N 56°56' E 007°45'816.4
2019-Sep-20 04:00N 57°03' E 007°53'3204.7
2019-Sep-20 04:00N 57°00' E 007°54'1122.7 300 / 301022.410.8 13.3 7.118.5
2019-Sep-20 03:30N 57°11' E 007°60'816.7
2019-Sep-20 03:01N 57°18' E 008°05'12698.2
2019-Sep-20 03:00N 57°30' E 008°00'815.9 290 / 331022.210.8 13.1 5.518.5
2019-Sep-20 02:30N 57°26' E 008°12'816.4
2019-Sep-20 02:01N 57°33' E 008°19'3185.1
2019-Sep-20 02:00N 57°30' E 008°18'1123.1 300 / 301022.210.8 13.2 5.618.5
2019-Sep-20 01:31N 57°41' E 008°25'917.7
2019-Sep-20 01:01N 57°48' E 008°32'918.0
2019-Sep-20 00:30N 57°57' E 008°39'918.4
2019-Sep-20 00:01N 58°04' E 008°50'918.2
2019-Sep-19 23:30N 58°10' E 009°02'917.7
2019-Sep-19 23:00N 58°17' E 009°14'917.6
2019-Sep-19 22:30N 58°24' E 009°24'917.7
2019-Sep-19 22:00N 58°30' E 009°35'917.6
2019-Sep-19 21:30N 58°37' E 009°47'917.8
2019-Sep-19 21:00N 58°43' E 009°59'917.9
2019-Sep-19 20:30N 58°50' E 010°10'917.3
2019-Sep-19 20:00N 58°56' E 010°23'817.1
2019-Sep-19 19:31N 59°02' E 010°34'510.9
2019-Sep-19 19:00N 59°07' E 010°36'816.8
2019-Sep-19 18:30N 59°15' E 010°37'918.0
2019-Sep-19 18:00N 59°24' E 010°33'917.5
2019-Sep-19 17:30N 59°33' E 010°36'816.0
2019-Sep-19 17:01N 59°41' E 010°37'4212.3
2019-Sep-19 17:00N 59°42' E 010°30'611.5 190 / 41022.610.8 13.5-3.314.5
2019-Sep-19 16:30N 59°47' E 010°34'714.3
2019-Sep-19 16:00N 59°53' E 010°41'6662.0
2019-Sep-19 16:00N 59°48' E 010°42'613.1 010 / 111022.610.8 13.5-3.314.5
2019-Sep-19 15:30N 59°54' E 010°44'0 0.0
2019-Sep-19 15:00N 59°54' E 010°44'0 0.0
2019-Sep-19 14:30N 59°54' E 010°44'0 0.0
2019-Sep-19 14:00N 59°54' E 010°44'0 0.0
2019-Sep-19 13:30N 59°54' E 010°44'0 0.0
2019-Sep-19 13:00N 59°54' E 010°44'0 0.0
2019-Sep-19 12:30N 59°54' E 010°44'0 0.0
2019-Sep-19 12:00N 59°54' E 010°44'0 0.0
2019-Sep-19 11:30N 59°54' E 010°44'0 0.0
2019-Sep-19 11:00N 59°54' E 010°44'0 0.0
2019-Sep-19 10:30N 59°54' E 010°44'0 0.0
2019-Sep-19 10:00N 59°54' E 010°44'0 0.0
2019-Sep-19 09:30N 59°54' E 010°44'0 0.0
2019-Sep-19 09:00N 59°54' E 010°44'0 0.0
2019-Sep-19 08:30N 59°54' E 010°44'0 0.0
2019-Sep-19 08:00N 59°54' E 010°44'0 0.1
2019-Sep-19 07:30N 59°54' E 010°44'2 4.4
2019-Sep-19 07:00N 59°53' E 010°40'611.5
2019-Sep-19 06:29N 59°48' E 010°35'613.0
2019-Sep-19 06:00N 59°42' E 010°36'611.1
2019-Sep-19 05:30N 59°36' E 010°38'612.9
2019-Sep-19 05:00N 59°30' E 010°35'7434.9
2019-Sep-19 05:00N 59°24' E 010°30'2 5.0 010 / 111022.610.8 9.5-6.817.5
2019-Sep-19 04:30N 59°24' E 010°35'713.8
2019-Sep-19 04:00N 59°17' E 010°37'5292.2
2019-Sep-19 04:00N 59°12' E 010°36'3 5.5 310 / 171022.110.8 9.5-6.817.5
2019-Sep-19 03:30N 59°10' E 010°39'611.9
2019-Sep-19 03:00N 59°05' E 010°34'815.2
2019-Sep-19 02:30N 58°57' E 010°34'816.7
2019-Sep-19 02:00N 58°49' E 010°32'816.9
2019-Sep-19 01:30N 58°41' E 010°36'917.4
2019-Sep-19 01:00N 58°32' E 010°42'1019.8
2019-Sep-19 00:30N 58°23' E 010°49'1121.2
2019-Sep-19 00:00N 58°13' E 010°56'1120.9
2019-Sep-18 23:30N 58°04' E 011°05'1020.3
2019-Sep-18 23:00N 57°55' E 011°12'1020.4
2019-Sep-18 22:30N 57°45' E 011°17'1020.4
2019-Sep-18 22:00N 57°35' E 011°23'1020.5
2019-Sep-18 21:30N 57°25' E 011°30'1020.6
2019-Sep-18 21:00N 57°16' E 011°35'1019.9
2019-Sep-18 20:30N 57°06' E 011°41'5419.3
2019-Sep-18 17:43N 56°15' E 012°14'419.6
2019-Sep-18 17:29N 56°13' E 012°21'918.2
2019-Sep-18 17:00N 56°07' E 012°33'816.3
2019-Sep-18 16:30N 56°01' E 012°41'714.9
2019-Sep-18 16:00N 55°53' E 012°45'6390.9
2019-Sep-18 16:00N 55°48' E 012°42'1 2.6 310 / 231016.410.8 13.0-2.119.0
2019-Sep-18 15:30N 55°47' E 012°43'5 9.5
2019-Sep-18 15:00N 55°43' E 012°38'0 0.8
2019-Sep-18 14:29N 55°43' E 012°37'0 0.0
2019-Sep-18 13:59N 55°43' E 012°37'0 0.0
2019-Sep-18 13:29N 55°43' E 012°37'0 0.0
2019-Sep-18 12:59N 55°43' E 012°37'0 0.0
2019-Sep-18 12:29N 55°43' E 012°37'0 0.0
2019-Sep-18 11:59N 55°43' E 012°37'0 0.0
2019-Sep-18 11:29N 55°43' E 012°37'0 0.0
2019-Sep-18 10:59N 55°43' E 012°37'0 0.0
2019-Sep-18 10:29N 55°43' E 012°37'0 0.0
2019-Sep-18 09:59N 55°43' E 012°37'0 0.0
2019-Sep-18 09:29N 55°43' E 012°37'0 0.0
2019-Sep-18 08:59N 55°43' E 012°37'0 0.0
2019-Sep-18 08:29N 55°43' E 012°37'0 0.0
2019-Sep-18 07:59N 55°43' E 012°37'0 0.0
2019-Sep-18 07:29N 55°43' E 012°37'0 0.0
2019-Sep-18 06:59N 55°43' E 012°37'0 0.0
2019-Sep-18 06:29N 55°43' E 012°37'0 0.0
2019-Sep-18 05:59N 55°43' E 012°37'0 0.0
2019-Sep-18 05:29N 55°43' E 012°37'0 0.0
2019-Sep-18 04:59N 55°43' E 012°37'0 0.0
2019-Sep-18 04:29N 55°43' E 012°37'0 0.0
2019-Sep-18 03:59N 55°43' E 012°37'0 0.0
2019-Sep-18 03:29N 55°43' E 012°37'0 0.0
2019-Sep-18 02:59N 55°43' E 012°37'0 0.0
2019-Sep-18 02:29N 55°43' E 012°37'0 0.0
2019-Sep-18 01:59N 55°43' E 012°37'0 0.0
2019-Sep-18 01:29N 55°43' E 012°37'0 0.0
2019-Sep-18 00:59N 55°43' E 012°37'0 0.0
2019-Sep-18 00:29N 55°43' E 012°37'0 0.0
2019-Sep-17 23:59N 55°43' E 012°37'0 0.0
2019-Sep-17 23:29N 55°43' E 012°37'0 0.0
2019-Sep-17 22:59N 55°43' E 012°37'0 0.0
2019-Sep-17 22:29N 55°43' E 012°37'0 0.0
2019-Sep-17 21:59N 55°43' E 012°37'0 0.0
2019-Sep-17 21:29N 55°43' E 012°37'0 0.0
2019-Sep-17 20:59N 55°43' E 012°37'0 0.0
2019-Sep-17 20:29N 55°43' E 012°37'0 0.0
2019-Sep-17 19:59N 55°43' E 012°37'0 0.0
2019-Sep-17 19:29N 55°43' E 012°37'0 0.0
2019-Sep-17 18:59N 55°43' E 012°37'0 0.0
2019-Sep-17 18:29N 55°43' E 012°37'0 0.0
2019-Sep-17 17:59N 55°43' E 012°37'0 0.0
2019-Sep-17 17:29N 55°43' E 012°37'0 0.0
2019-Sep-17 16:59N 55°43' E 012°37'0 0.0
2019-Sep-17 16:29N 55°43' E 012°37'0 0.0
2019-Sep-17 15:59N 55°43' E 012°37'0 0.0
2019-Sep-17 15:29N 55°43' E 012°37'0 0.0
2019-Sep-17 14:59N 55°43' E 012°37'0 0.0
2019-Sep-17 14:29N 55°43' E 012°37'0 0.0
2019-Sep-17 13:59N 55°43' E 012°37'0 0.5
2019-Sep-17 13:31N 55°43' E 012°38'4 7.5
2019-Sep-17 13:01N 55°46' E 012°42'611.7
2019-Sep-17 12:30N 55°52' E 012°41'611.3
2019-Sep-17 12:00N 55°57' E 012°40'713.4
2019-Sep-17 11:30N 56°04' E 012°37'8515.3
2019-Sep-17 06:00N 55°06' E 010°48'2018.7 290 / 301006.810.8 11.2-0.918.0
2019-Sep-17 04:55N 55°25' E 011°00'716.1
2019-Sep-17 04:31N 55°19' E 011°03'713.6
2019-Sep-17 04:00N 55°12' E 011°06'7707.0
2019-Sep-17 04:00N 55°06' E 011°00'2 3.5 270 / 281008.610.8 12.1 1.118.0
2019-Sep-17 03:31N 55°05' E 011°03'713.9
2019-Sep-17 03:01N 54°59' E 011°00'442642.1
2019-Sep-17 03:00N 55°42' E 010°48'49101.4 250 / 201010.610.8 11.9 2.618.0
2019-Sep-17 02:30N 54°53' E 010°54'714.1
2019-Sep-17 02:00N 54°46' E 010°52'563478.8
2019-Sep-17 02:00N 55°42' E 010°48'62127.8 280 / 451010.810.8 12.1 1.718.0
2019-Sep-17 01:30N 54°40' E 010°58'714.3
2019-Sep-17 01:00N 54°37' E 011°09'713.6
2019-Sep-17 00:30N 54°35' E 011°20'713.1
2019-Sep-17 00:00N 54°31' E 011°30'713.4
2019-Sep-16 23:30N 54°28' E 011°40'1713.5
2019-Sep-16 22:14N 54°27' E 012°10'412.8
2019-Sep-16 21:57N 54°30' E 012°13'613.8
2019-Sep-16 21:30N 54°36' E 012°14'713.7
2019-Sep-16 21:00N 54°40' E 012°23'6714.6
2019-Sep-16 16:25N 55°09' E 014°09'1228.7
2019-Sep-16 16:00N 55°00' E 013°54'191346.8 290 / 321005.910.8 15.1-3.817.3
2019-Sep-16 15:59N 55°14' E 014°17'817.4
2019-Sep-16 15:30N 55°21' E 014°26'816.8
2019-Sep-16 15:00N 55°27' E 014°37'3385.3
2019-Sep-16 15:00N 55°24' E 014°36'1020.1 280 / 281005.910.8 15.1-3.817.3
2019-Sep-16 14:30N 55°30' E 014°50'715.3
2019-Sep-16 14:00N 55°33' E 015°01'816.3
2019-Sep-16 13:30N 55°37' E 015°14'816.4
2019-Sep-16 13:00N 55°41' E 015°27'917.7
2019-Sep-16 12:30N 55°46' E 015°40'918.5
2019-Sep-16 12:00N 55°50' E 015°55'1019.9
2019-Sep-16 11:30N 55°56' E 016°10'1020.0
2019-Sep-16 11:00N 56°01' E 016°25'1020.6
2019-Sep-16 10:30N 56°07' E 016°40'1020.6
2019-Sep-16 10:00N 56°12' E 016°56'22818.8
2019-Sep-15 21:53N 59°18' E 021°02'718.7
2019-Sep-15 21:30N 59°19' E 021°16'918.7
2019-Sep-15 21:00N 59°22' E 021°33'918.7
2019-Sep-15 20:30N 59°24' E 021°51'1118.9
2019-Sep-15 19:57N 59°27' E 022°11'919.1
2019-Sep-15 19:30N 59°30' E 022°27'919.3
2019-Sep-15 19:00N 59°34' E 022°44'1019.5
2019-Sep-15 18:30N 59°36' E 023°02'1019.3
2019-Sep-15 18:00N 59°39' E 023°21'1019.2
2019-Sep-15 17:30N 59°41' E 023°39'918.6
2019-Sep-15 17:00N 59°43' E 023°57'815.7
2019-Sep-15 16:29N 59°46' E 024°13'715.5
2019-Sep-15 16:00N 59°48' E 024°27'714.8
2019-Sep-15 15:30N 59°51' E 024°40'815.8
2019-Sep-15 15:00N 59°58' E 024°50'611.0
2019-Sep-15 14:30N 60°03' E 024°54'612.7
2019-Sep-15 14:00N 60°09' E 024°55'0 0.2
2019-Sep-15 13:30N 60°09' E 024°55'0 0.0
2019-Sep-15 12:58N 60°09' E 024°55'0 0.0
2019-Sep-15 12:28N 60°09' E 024°55'0 0.0
2019-Sep-15 11:58N 60°09' E 024°55'0 0.0
2019-Sep-15 11:28N 60°09' E 024°55'0 0.0
2019-Sep-15 10:58N 60°09' E 024°55'0 0.0
2019-Sep-15 10:28N 60°09' E 024°55'0 0.0
2019-Sep-15 09:58N 60°09' E 024°55'0 0.0
2019-Sep-15 09:28N 60°09' E 024°55'0 0.0
2019-Sep-15 08:58N 60°09' E 024°55'0 0.0
2019-Sep-15 08:28N 60°09' E 024°55'0 0.0
2019-Sep-15 07:58N 60°09' E 024°55'0 0.0
2019-Sep-15 07:28N 60°09' E 024°55'0 0.0
2019-Sep-15 06:58N 60°09' E 024°55'0 0.0
2019-Sep-15 06:28N 60°09' E 024°55'0 0.0
2019-Sep-15 05:58N 60°09' E 024°55'0 0.0
2019-Sep-15 05:28N 60°09' E 024°55'0 0.0
2019-Sep-15 04:58N 60°09' E 024°55'0 0.0
2019-Sep-15 04:28N 60°09' E 024°55'0 1.0
2019-Sep-15 04:00N 60°09' E 024°55'3 5.0
2019-Sep-15 03:31N 60°06' E 024°54'815.6
2019-Sep-15 03:01N 59°59' E 024°59'816.5
2019-Sep-15 02:31N 59°55' E 025°13'917.5
2019-Sep-15 02:00N 59°55' E 025°30'6387.5
2019-Sep-15 02:00N 59°54' E 025°42'3 6.8 210 / 221008.110.8 11.8 2.019.0
2019-Sep-15 01:30N 59°55' E 025°48'917.6
2019-Sep-15 01:00N 59°57' E 026°06'817.5
2019-Sep-15 00:31N 59°60' E 026°22'917.3
2019-Sep-15 00:00N 60°01' E 026°39'917.5
2019-Sep-14 23:31N 59°60' E 026°56'816.8
2019-Sep-14 23:01N 60°02' E 027°12'917.6
2019-Sep-14 22:31N 60°06' E 027°27'917.6
2019-Sep-14 22:00N 60°11' E 027°42'816.6
2019-Sep-14 21:31N 60°11' E 027°59'917.3
2019-Sep-14 21:01N 60°08' E 028°15'917.0
2019-Sep-14 20:30N 60°04' E 028°30'816.9
2019-Sep-14 20:00N 60°03' E 028°46'1717.2
2019-Sep-14 19:02N 60°02' E 029°20'117.3
2019-Sep-14 19:00N 60°02' E 029°21'611.2
2019-Sep-14 18:30N 60°01' E 029°32'612.0
2019-Sep-14 18:00N 59°59' E 029°43'510.7
2019-Sep-14 17:31N 59°57' E 029°53'510.6
2019-Sep-14 17:01N 59°56' E 030°03'4 8.6
2019-Sep-14 16:31N 59°57' E 030°11'0 0.2
2019-Sep-14 15:58N 59°57' E 030°12'0 0.0
2019-Sep-14 15:28N 59°57' E 030°12'0 0.0
2019-Sep-14 14:58N 59°57' E 030°12'0 0.0
2019-Sep-14 14:28N 59°57' E 030°12'0 0.0
2019-Sep-14 13:58N 59°57' E 030°12'0 0.0
2019-Sep-14 13:28N 59°57' E 030°12'0 0.0
2019-Sep-14 12:58N 59°57' E 030°12'0 0.0
2019-Sep-14 12:28N 59°57' E 030°12'0 0.0
2019-Sep-14 11:58N 59°57' E 030°12'0 0.0
2019-Sep-14 11:28N 59°57' E 030°12'0 0.0
2019-Sep-14 10:58N 59°57' E 030°12'0 0.0
2019-Sep-14 10:28N 59°57' E 030°12'0 0.0
2019-Sep-14 09:55N 59°57' E 030°12'0 0.0
2019-Sep-14 09:28N 59°57' E 030°12'0 0.0
2019-Sep-14 08:58N 59°57' E 030°12'0 0.0
2019-Sep-14 08:28N 59°57' E 030°12'0 0.0
2019-Sep-14 07:58N 59°57' E 030°12'0 0.0
2019-Sep-14 07:28N 59°57' E 030°12'0 0.0
2019-Sep-14 06:58N 59°57' E 030°12'0 0.0
2019-Sep-14 06:28N 59°57' E 030°12'0 0.0
2019-Sep-14 05:58N 59°57' E 030°12'0 0.0
2019-Sep-14 05:28N 59°57' E 030°12'0 0.0
2019-Sep-14 04:58N 59°57' E 030°12'0 0.0
2019-Sep-14 04:28N 59°57' E 030°12'0 0.0
2019-Sep-14 03:58N 59°57' E 030°12'0 0.0
2019-Sep-14 03:28N 59°57' E 030°12'0 0.0
2019-Sep-14 02:58N 59°57' E 030°12'0 0.0
2019-Sep-14 02:28N 59°57' E 030°12'0 0.0
2019-Sep-14 01:58N 59°57' E 030°12'0 0.0
2019-Sep-14 01:28N 59°57' E 030°12'0 0.0
2019-Sep-14 00:58N 59°57' E 030°12'0 0.0
2019-Sep-14 00:28N 59°57' E 030°12'0 0.0
2019-Sep-13 23:58N 59°57' E 030°12'0 0.0
2019-Sep-13 23:28N 59°57' E 030°12'0 0.0
2019-Sep-13 22:58N 59°57' E 030°12'0 0.0
2019-Sep-13 22:28N 59°57' E 030°12'0 0.0
2019-Sep-13 21:58N 59°57' E 030°12'0 0.0
2019-Sep-13 21:28N 59°57' E 030°12'0 0.0
2019-Sep-13 20:58N 59°57' E 030°12'0 0.0
2019-Sep-13 20:28N 59°57' E 030°12'0 0.0
2019-Sep-13 19:58N 59°57' E 030°12'0 0.0
2019-Sep-13 19:28N 59°57' E 030°12'0 0.0
2019-Sep-13 18:58N 59°57' E 030°12'0 0.0
2019-Sep-13 18:28N 59°57' E 030°12'0 0.0
2019-Sep-13 17:58N 59°57' E 030°12'0 0.0
2019-Sep-13 17:28N 59°57' E 030°12'0 0.0
2019-Sep-13 16:58N 59°57' E 030°12'0 0.0
2019-Sep-13 16:28N 59°57' E 030°12'0 0.0
2019-Sep-13 15:58N 59°57' E 030°12'0 0.0
2019-Sep-13 15:28N 59°57' E 030°12'0 0.0
2019-Sep-13 14:58N 59°57' E 030°12'0 0.0
2019-Sep-13 14:28N 59°57' E 030°12'0 0.0
2019-Sep-13 13:58N 59°57' E 030°12'0 0.0
2019-Sep-13 13:28N 59°57' E 030°12'0 0.0
2019-Sep-13 12:58N 59°57' E 030°12'0 0.0
2019-Sep-13 12:28N 59°57' E 030°12'0 0.0
2019-Sep-13 11:58N 59°57' E 030°12'0 0.0
2019-Sep-13 11:28N 59°57' E 030°12'0 0.0
2019-Sep-13 10:58N 59°57' E 030°12'0 0.0
2019-Sep-13 10:28N 59°57' E 030°12'0 0.0
2019-Sep-13 09:58N 59°57' E 030°12'0 0.0
2019-Sep-13 09:28N 59°57' E 030°12'0 0.0
2019-Sep-13 08:58N 59°57' E 030°12'0 0.0
2019-Sep-13 08:28N 59°57' E 030°12'0 0.0
2019-Sep-13 07:58N 59°57' E 030°12'0 0.0
2019-Sep-13 07:28N 59°57' E 030°12'0 0.0
2019-Sep-13 06:58N 59°57' E 030°12'0 0.0
2019-Sep-13 06:28N 59°57' E 030°12'0 0.0
2019-Sep-13 05:58N 59°57' E 030°12'0 0.0
2019-Sep-13 05:28N 59°57' E 030°12'0 0.0
2019-Sep-13 04:58N 59°57' E 030°12'0 0.0
2019-Sep-13 04:28N 59°57' E 030°12'0 0.0
2019-Sep-13 03:59N 59°57' E 030°12'1 1.9
2019-Sep-13 03:30N 59°57' E 030°10'4 8.3
2019-Sep-13 03:00N 59°56' E 030°02'5 9.3
2019-Sep-13 02:30N 59°57' E 029°53'10 9.8
2019-Sep-13 01:30N 60°01' E 029°35'5 9.8
2019-Sep-13 01:00N 60°01' E 029°25'510.6
2019-Sep-13 00:30N 60°01' E 029°14'713.6
2019-Sep-13 00:00N 60°01' E 029°01'817.0
2019-Sep-12 23:30N 60°02' E 028°44'714.4
2019-Sep-12 23:00N 60°03' E 028°30'713.6
2019-Sep-12 22:30N 60°06' E 028°18'713.8
2019-Sep-12 22:00N 60°09' E 028°05'713.9
2019-Sep-12 21:30N 60°10' E 027°52'713.4
2019-Sep-12 21:00N 60°08' E 027°39'714.4
2019-Sep-12 20:30N 60°05' E 027°26'714.4
2019-Sep-12 20:00N 60°01' E 027°14'714.4
2019-Sep-12 19:30N 59°58' E 027°01'714.7
2019-Sep-12 19:00N 59°59' E 026°46'714.5
2019-Sep-12 18:31N 59°59' E 026°32'815.0
2019-Sep-12 18:00N 59°56' E 026°18'1014.9
2019-Sep-12 17:19N 59°53' E 025°58'514.7
2019-Sep-12 16:59N 59°52' E 025°49'714.9
2019-Sep-12 16:30N 59°50' E 025°35'715.0
2019-Sep-12 16:01N 59°49' E 025°20'181055.0
2019-Sep-12 16:00N 59°42' E 024°48'1021.0 250 / 301011.910.8 19.8 9.719.0
2019-Sep-12 15:30N 59°47' E 025°05'815.4
2019-Sep-12 15:00N 59°43' E 024°52'2150.0
2019-Sep-12 15:00N 59°42' E 024°48'510.7 050 / 351011.910.8 19.8 9.719.0
2019-Sep-12 14:30N 59°38' E 024°41'714.5
2019-Sep-12 14:01N 59°31' E 024°45'7415.6
2019-Sep-12 14:00N 59°24' E 024°42'4 7.2 240 / 331011.910.8 19.8 9.719.0
2019-Sep-12 13:30N 59°27' E 024°46'0 0.0
2019-Sep-12 13:00N 59°27' E 024°46'0 0.0
2019-Sep-12 12:30N 59°27' E 024°46'0 0.0
2019-Sep-12 12:00N 59°27' E 024°46'0 0.0
2019-Sep-12 11:30N 59°27' E 024°46'0 0.0
2019-Sep-12 11:00N 59°27' E 024°46'0 0.0
2019-Sep-12 10:30N 59°27' E 024°46'0 0.0
2019-Sep-12 10:00N 59°27' E 024°46'0 0.0
2019-Sep-12 09:30N 59°27' E 024°46'0 0.0
2019-Sep-12 09:00N 59°27' E 024°46'0 0.0
2019-Sep-12 08:30N 59°27' E 024°46'0 0.0
2019-Sep-12 08:00N 59°27' E 024°46'0 0.0
2019-Sep-12 07:30N 59°27' E 024°46'0 0.0
2019-Sep-12 07:00N 59°27' E 024°46'0 0.0
2019-Sep-12 06:30N 59°27' E 024°46'0 0.0
2019-Sep-12 06:00N 59°27' E 024°46'0 0.0
2019-Sep-12 05:30N 59°27' E 024°46'0 0.0
2019-Sep-12 05:00N 59°27' E 024°46'0 0.2
2019-Sep-12 04:30N 59°27' E 024°46'2 3.8
2019-Sep-12 04:01N 59°29' E 024°45'611.9
2019-Sep-12 03:30N 59°30' E 024°34'714.1
2019-Sep-12 03:01N 59°30' E 024°20'815.8
2019-Sep-12 02:30N 59°28' E 024°05'1223.8
2019-Sep-12 02:00N 59°24' E 023°42'444.0 210 / 361012.010.8 16.5 6.619.0
2019-Sep-12 01:54N 59°28' E 023°44'16516.6
2019-Sep-11 16:00N 57°42' E 019°42'15 7.7 230 / 221013.810.8 18.4 5.618.0
2019-Sep-11 14:00N 57°30' E 019°24'8522.0 230 / 221013.810.8 18.4 5.618.0
2019-Sep-11 10:08N 56°26' E 017°41'217.9
2019-Sep-11 09:59N 56°24' E 017°38'1117.9
2019-Sep-11 09:24N 56°18' E 017°22'818.0
2019-Sep-11 08:56N 56°13' E 017°10'817.8
2019-Sep-11 08:30N 56°09' E 016°59'917.8
2019-Sep-11 08:01N 56°03' E 016°46'917.8
2019-Sep-11 07:31N 55°58' E 016°33'917.6
2019-Sep-11 07:01N 55°53' E 016°20'917.7
2019-Sep-11 06:31N 55°49' E 016°07'917.9
2019-Sep-11 06:01N 55°44' E 015°54'918.0
2019-Sep-11 05:31N 55°40' E 015°39'917.7
2019-Sep-11 05:01N 55°36' E 015°25'7430.2
2019-Sep-11 05:00N 55°30' E 015°18'4 9.1 260 / 291013.3 5.4 15.6 8.619.5
2019-Sep-11 04:31N 55°32' E 015°11'917.4
2019-Sep-11 04:00N 55°28' E 014°57'917.4
2019-Sep-11 03:30N 55°25' E 014°43'3363.8
2019-Sep-11 03:00N 55°00' E 014°06'   260 / 281013.110.8 16.1 18.5
Track history (hours):
 
Tides and Currents Weather Stations Pressure Air Temp Water Temp Dewpoint Dewpoint Depression Visibility Wind Speed Wind Dir Waves Ship Positions

Rotterdam

Operator: Holland America Line

Last reported at 2019-Sep-21 00:00 UTC. Time now 2019-Sep-21 00:30 UTC.
Position N 52°29' E 004°13'.

Length 228 m; beam 29 m.

Type: Ship. MMSI: 24616700.

Date/timePositionNaut miles runAvg speedWind from/ knotsBaromVisibWave heightAir tempDewpointWater temp
2019-Sep-21 00:00N 52°29' E 004°13'714.2
2019-Sep-20 23:30N 52°34' E 004°05'714.7
2019-Sep-20 23:01N 52°40' E 003°57'713.7
2019-Sep-20 22:30N 52°46' E 003°59'714.3
2019-Sep-20 22:00N 52°54' E 003°59'714.2
2019-Sep-20 21:30N 52°60' E 004°05'815.2
2019-Sep-20 21:00N 53°05' E 004°14'815.5
2019-Sep-20 20:30N 53°10' E 004°24'815.1
2019-Sep-20 20:00N 53°17' E 004°28'715.0
2019-Sep-20 19:30N 53°24' E 004°32'815.9
2019-Sep-20 18:58N 53°32' E 004°36'715.2
2019-Sep-20 18:29N 53°39' E 004°40'1114.2
2019-Sep-20 17:40N 53°50' E 004°48'515.4
2019-Sep-20 17:21N 53°54' E 004°52'515.3
2019-Sep-20 17:00N 53°59' E 004°56'1101.7
2019-Sep-20 17:00N 54°00' E 004°54'815.4 280 / 151027.910.8 16.1 5.718.0
2019-Sep-20 16:30N 54°07' E 005°01'916.0
2019-Sep-20 15:57N 54°14' E 005°08'1314.1
2019-Sep-20 15:00N 54°24' E 005°24'8916.5 280 / 151027.910.8 16.1 5.718.0
2019-Sep-20 09:35N 55°43' E 006°36'216.3
2019-Sep-20 09:27N 55°45' E 006°37'716.3
2019-Sep-20 09:00N 55°52' E 006°44'816.0
2019-Sep-20 08:29N 55°59' E 006°50'816.6
2019-Sep-20 08:00N 56°06' E 006°57'916.4
2019-Sep-20 07:28N 56°14' E 007°02'816.2
2019-Sep-20 07:00N 56°21' E 007°09'816.3
2019-Sep-20 06:30N 56°28' E 007°18'4 8.1
2019-Sep-20 06:00N 56°30' E 007°24'53652.7 290 / 251023.710.8 13.1 8.015.0
2019-Sep-20 05:59N 56°35' E 007°25'815.8
2019-Sep-20 05:30N 56°42' E 007°31'712.9
2019-Sep-20 05:00N 56°48' E 007°36'21228.9 300 / 331022.910.8 13.1 7.118.5
2019-Sep-20 04:59N 56°49' E 007°38'816.4
2019-Sep-20 04:30N 56°56' E 007°45'816.4
2019-Sep-20 04:00N 57°03' E 007°53'3204.7
2019-Sep-20 04:00N 57°00' E 007°54'1122.7 300 / 301022.410.8 13.3 7.118.5
2019-Sep-20 03:30N 57°11' E 007°60'816.7
2019-Sep-20 03:01N 57°18' E 008°05'12698.2
2019-Sep-20 03:00N 57°30' E 008°00'815.9 290 / 331022.210.8 13.1 5.518.5
2019-Sep-20 02:30N 57°26' E 008°12'816.4
2019-Sep-20 02:01N 57°33' E 008°19'3185.1
2019-Sep-20 02:00N 57°30' E 008°18'1123.1 300 / 301022.210.8 13.2 5.618.5
2019-Sep-20 01:31N 57°41' E 008°25'917.7
2019-Sep-20 01:01N 57°48' E 008°32'918.0
2019-Sep-20 00:30N 57°57' E 008°39'918.4
2019-Sep-20 00:01N 58°04' E 008°50'918.2
2019-Sep-19 23:30N 58°10' E 009°02'917.7
2019-Sep-19 23:00N 58°17' E 009°14'917.6
2019-Sep-19 22:30N 58°24' E 009°24'917.7
2019-Sep-19 22:00N 58°30' E 009°35'917.6
2019-Sep-19 21:30N 58°37' E 009°47'917.8
2019-Sep-19 21:00N 58°43' E 009°59'917.9
2019-Sep-19 20:30N 58°50' E 010°10'917.3
2019-Sep-19 20:00N 58°56' E 010°23'817.1
2019-Sep-19 19:31N 59°02' E 010°34'510.9
2019-Sep-19 19:00N 59°07' E 010°36'816.8
2019-Sep-19 18:30N 59°15' E 010°37'918.0
2019-Sep-19 18:00N 59°24' E 010°33'917.5
2019-Sep-19 17:30N 59°33' E 010°36'816.0
2019-Sep-19 17:01N 59°41' E 010°37'4212.3
2019-Sep-19 17:00N 59°42' E 010°30'611.5 190 / 41022.610.8 13.5-3.314.5
2019-Sep-19 16:30N 59°47' E 010°34'714.3
2019-Sep-19 16:00N 59°53' E 010°41'6662.0
2019-Sep-19 16:00N 59°48' E 010°42'613.1 010 / 111022.610.8 13.5-3.314.5
2019-Sep-19 15:30N 59°54' E 010°44'0 0.0
2019-Sep-19 15:00N 59°54' E 010°44'0 0.0
2019-Sep-19 14:30N 59°54' E 010°44'0 0.0
2019-Sep-19 14:00N 59°54' E 010°44'0 0.0
2019-Sep-19 13:30N 59°54' E 010°44'0 0.0
2019-Sep-19 13:00N 59°54' E 010°44'0 0.0
2019-Sep-19 12:30N 59°54' E 010°44'0 0.0
2019-Sep-19 12:00N 59°54' E 010°44'0 0.0
2019-Sep-19 11:30N 59°54' E 010°44'0 0.0
2019-Sep-19 11:00N 59°54' E 010°44'0 0.0
2019-Sep-19 10:30N 59°54' E 010°44'0 0.0
2019-Sep-19 10:00N 59°54' E 010°44'0 0.0
2019-Sep-19 09:30N 59°54' E 010°44'0 0.0
2019-Sep-19 09:00N 59°54' E 010°44'0 0.0
2019-Sep-19 08:30N 59°54' E 010°44'0 0.0
2019-Sep-19 08:00N 59°54' E 010°44'0 0.1
2019-Sep-19 07:30N 59°54' E 010°44'2 4.4
2019-Sep-19 07:00N 59°53' E 010°40'611.5
2019-Sep-19 06:29N 59°48' E 010°35'613.0
2019-Sep-19 06:00N 59°42' E 010°36'611.1
2019-Sep-19 05:30N 59°36' E 010°38'612.9
2019-Sep-19 05:00N 59°30' E 010°35'7434.9
2019-Sep-19 05:00N 59°24' E 010°30'2 5.0 010 / 111022.610.8 9.5-6.817.5
2019-Sep-19 04:30N 59°24' E 010°35'713.8
2019-Sep-19 04:00N 59°17' E 010°37'5292.2
2019-Sep-19 04:00N 59°12' E 010°36'3 5.5 310 / 171022.110.8 9.5-6.817.5
2019-Sep-19 03:30N 59°10' E 010°39'611.9
2019-Sep-19 03:00N 59°05' E 010°34'815.2
2019-Sep-19 02:30N 58°57' E 010°34'816.7
2019-Sep-19 02:00N 58°49' E 010°32'816.9
2019-Sep-19 01:30N 58°41' E 010°36'917.4
2019-Sep-19 01:00N 58°32' E 010°42'1019.8
2019-Sep-19 00:30N 58°23' E 010°49'1121.2
2019-Sep-19 00:00N 58°13' E 010°56'1120.9
2019-Sep-18 23:30N 58°04' E 011°05'1020.3
2019-Sep-18 23:00N 57°55' E 011°12'1020.4
2019-Sep-18 22:30N 57°45' E 011°17'1020.4
2019-Sep-18 22:00N 57°35' E 011°23'1020.5
2019-Sep-18 21:30N 57°25' E 011°30'1020.6
2019-Sep-18 21:00N 57°16' E 011°35'1019.9
2019-Sep-18 20:30N 57°06' E 011°41'5419.3
2019-Sep-18 17:43N 56°15' E 012°14'419.6
2019-Sep-18 17:29N 56°13' E 012°21'918.2
2019-Sep-18 17:00N 56°07' E 012°33'816.3
2019-Sep-18 16:30N 56°01' E 012°41'714.9
2019-Sep-18 16:00N 55°53' E 012°45'6390.9
2019-Sep-18 16:00N 55°48' E 012°42'1 2.6 310 / 231016.410.8 13.0-2.119.0
2019-Sep-18 15:30N 55°47' E 012°43'5 9.5
2019-Sep-18 15:00N 55°43' E 012°38'0 0.8
2019-Sep-18 14:29N 55°43' E 012°37'0 0.0
2019-Sep-18 13:59N 55°43' E 012°37'0 0.0
2019-Sep-18 13:29N 55°43' E 012°37'0 0.0
2019-Sep-18 12:59N 55°43' E 012°37'0 0.0
2019-Sep-18 12:29N 55°43' E 012°37'0 0.0
2019-Sep-18 11:59N 55°43' E 012°37'0 0.0
2019-Sep-18 11:29N 55°43' E 012°37'0 0.0
2019-Sep-18 10:59N 55°43' E 012°37'0 0.0
2019-Sep-18 10:29N 55°43' E 012°37'0 0.0
2019-Sep-18 09:59N 55°43' E 012°37'0 0.0
2019-Sep-18 09:29N 55°43' E 012°37'0 0.0
2019-Sep-18 08:59N 55°43' E 012°37'0 0.0
2019-Sep-18 08:29N 55°43' E 012°37'0 0.0
2019-Sep-18 07:59N 55°43' E 012°37'0 0.0
2019-Sep-18 07:29N 55°43' E 012°37'0 0.0
2019-Sep-18 06:59N 55°43' E 012°37'0 0.0
2019-Sep-18 06:29N 55°43' E 012°37'0 0.0
2019-Sep-18 05:59N 55°43' E 012°37'0 0.0
2019-Sep-18 05:29N 55°43' E 012°37'0 0.0
2019-Sep-18 04:59N 55°43' E 012°37'0 0.0
2019-Sep-18 04:29N 55°43' E 012°37'0 0.0
2019-Sep-18 03:59N 55°43' E 012°37'0 0.0
2019-Sep-18 03:29N 55°43' E 012°37'0 0.0
2019-Sep-18 02:59N 55°43' E 012°37'0 0.0
2019-Sep-18 02:29N 55°43' E 012°37'0 0.0
2019-Sep-18 01:59N 55°43' E 012°37'0 0.0
2019-Sep-18 01:29N 55°43' E 012°37'0 0.0
2019-Sep-18 00:59N 55°43' E 012°37'0 0.0
2019-Sep-18 00:29N 55°43' E 012°37'0 0.0
2019-Sep-17 23:59N 55°43' E 012°37'0 0.0
2019-Sep-17 23:29N 55°43' E 012°37'0 0.0
2019-Sep-17 22:59N 55°43' E 012°37'0 0.0
2019-Sep-17 22:29N 55°43' E 012°37'0 0.0
2019-Sep-17 21:59N 55°43' E 012°37'0 0.0
2019-Sep-17 21:29N 55°43' E 012°37'0 0.0
2019-Sep-17 20:59N 55°43' E 012°37'0 0.0
2019-Sep-17 20:29N 55°43' E 012°37'0 0.0
2019-Sep-17 19:59N 55°43' E 012°37'0 0.0
2019-Sep-17 19:29N 55°43' E 012°37'0 0.0
2019-Sep-17 18:59N 55°43' E 012°37'0 0.0
2019-Sep-17 18:29N 55°43' E 012°37'0 0.0
2019-Sep-17 17:59N 55°43' E 012°37'0 0.0
2019-Sep-17 17:29N 55°43' E 012°37'0 0.0
2019-Sep-17 16:59N 55°43' E 012°37'0 0.0
2019-Sep-17 16:29N 55°43' E 012°37'0 0.0
2019-Sep-17 15:59N 55°43' E 012°37'0 0.0
2019-Sep-17 15:29N 55°43' E 012°37'0 0.0
2019-Sep-17 14:59N 55°43' E 012°37'0 0.0
2019-Sep-17 14:29N 55°43' E 012°37'0 0.0
2019-Sep-17 13:59N 55°43' E 012°37'0 0.5
2019-Sep-17 13:31N 55°43' E 012°38'4 7.5
2019-Sep-17 13:01N 55°46' E 012°42'611.7
2019-Sep-17 12:30N 55°52' E 012°41'611.3
2019-Sep-17 12:00N 55°57' E 012°40'713.4
2019-Sep-17 11:30N 56°04' E 012°37'8515.3
2019-Sep-17 06:00N 55°06' E 010°48'2018.7 290 / 301006.810.8 11.2-0.918.0
2019-Sep-17 04:55N 55°25' E 011°00'716.1
2019-Sep-17 04:31N 55°19' E 011°03'713.6
2019-Sep-17 04:00N 55°12' E 011°06'7707.0
2019-Sep-17 04:00N 55°06' E 011°00'2 3.5 270 / 281008.610.8 12.1 1.118.0
2019-Sep-17 03:31N 55°05' E 011°03'713.9
2019-Sep-17 03:01N 54°59' E 011°00'442642.1
2019-Sep-17 03:00N 55°42' E 010°48'49101.4 250 / 201010.610.8 11.9 2.618.0
2019-Sep-17 02:30N 54°53' E 010°54'714.1
2019-Sep-17 02:00N 54°46' E 010°52'563478.8
2019-Sep-17 02:00N 55°42' E 010°48'62127.8 280 / 451010.810.8 12.1 1.718.0
2019-Sep-17 01:30N 54°40' E 010°58'714.3
2019-Sep-17 01:00N 54°37' E 011°09'713.6
2019-Sep-17 00:30N 54°35' E 011°20'713.1
2019-Sep-17 00:00N 54°31' E 011°30'713.4
2019-Sep-16 23:30N 54°28' E 011°40'1713.5
2019-Sep-16 22:14N 54°27' E 012°10'412.8
2019-Sep-16 21:57N 54°30' E 012°13'613.8
2019-Sep-16 21:30N 54°36' E 012°14'713.7
2019-Sep-16 21:00N 54°40' E 012°23'6714.6
2019-Sep-16 16:25N 55°09' E 014°09'1228.7
2019-Sep-16 16:00N 55°00' E 013°54'191346.8 290 / 321005.910.8 15.1-3.817.3
2019-Sep-16 15:59N 55°14' E 014°17'817.4
2019-Sep-16 15:30N 55°21' E 014°26'816.8
2019-Sep-16 15:00N 55°27' E 014°37'3385.3
2019-Sep-16 15:00N 55°24' E 014°36'1020.1 280 / 281005.910.8 15.1-3.817.3
2019-Sep-16 14:30N 55°30' E 014°50'715.3
2019-Sep-16 14:00N 55°33' E 015°01'816.3
2019-Sep-16 13:30N 55°37' E 015°14'816.4
2019-Sep-16 13:00N 55°41' E 015°27'917.7
2019-Sep-16 12:30N 55°46' E 015°40'918.5
2019-Sep-16 12:00N 55°50' E 015°55'1019.9
2019-Sep-16 11:30N 55°56' E 016°10'1020.0
2019-Sep-16 11:00N 56°01' E 016°25'1020.6
2019-Sep-16 10:30N 56°07' E 016°40'1020.6
2019-Sep-16 10:00N 56°12' E 016°56'22818.8
2019-Sep-15 21:53N 59°18' E 021°02'718.7
2019-Sep-15 21:30N 59°19' E 021°16'918.7
2019-Sep-15 21:00N 59°22' E 021°33'918.7
2019-Sep-15 20:30N 59°24' E 021°51'1118.9
2019-Sep-15 19:57N 59°27' E 022°11'919.1
2019-Sep-15 19:30N 59°30' E 022°27'919.3
2019-Sep-15 19:00N 59°34' E 022°44'1019.5
2019-Sep-15 18:30N 59°36' E 023°02'1019.3
2019-Sep-15 18:00N 59°39' E 023°21'1019.2
2019-Sep-15 17:30N 59°41' E 023°39'918.6
2019-Sep-15 17:00N 59°43' E 023°57'815.7
2019-Sep-15 16:29N 59°46' E 024°13'715.5
2019-Sep-15 16:00N 59°48' E 024°27'714.8
2019-Sep-15 15:30N 59°51' E 024°40'815.8
2019-Sep-15 15:00N 59°58' E 024°50'611.0
2019-Sep-15 14:30N 60°03' E 024°54'612.7
2019-Sep-15 14:00N 60°09' E 024°55'0 0.2
2019-Sep-15 13:30N 60°09' E 024°55'0 0.0
2019-Sep-15 12:58N 60°09' E 024°55'0 0.0
2019-Sep-15 12:28N 60°09' E 024°55'0 0.0
2019-Sep-15 11:58N 60°09' E 024°55'0 0.0
2019-Sep-15 11:28N 60°09' E 024°55'0 0.0
2019-Sep-15 10:58N 60°09' E 024°55'0 0.0
2019-Sep-15 10:28N 60°09' E 024°55'0 0.0
2019-Sep-15 09:58N 60°09' E 024°55'0 0.0
2019-Sep-15 09:28N 60°09' E 024°55'0 0.0
2019-Sep-15 08:58N 60°09' E 024°55'0 0.0
2019-Sep-15 08:28N 60°09' E 024°55'0 0.0
2019-Sep-15 07:58N 60°09' E 024°55'0 0.0
2019-Sep-15 07:28N 60°09' E 024°55'0 0.0
2019-Sep-15 06:58N 60°09' E 024°55'0 0.0
2019-Sep-15 06:28N 60°09' E 024°55'0 0.0
2019-Sep-15 05:58N 60°09' E 024°55'0 0.0
2019-Sep-15 05:28N 60°09' E 024°55'0 0.0
2019-Sep-15 04:58N 60°09' E 024°55'0 0.0
2019-Sep-15 04:28N 60°09' E 024°55'0 1.0
2019-Sep-15 04:00N 60°09' E 024°55'3 5.0
2019-Sep-15 03:31N 60°06' E 024°54'815.6
2019-Sep-15 03:01N 59°59' E 024°59'816.5
2019-Sep-15 02:31N 59°55' E 025°13'917.5
2019-Sep-15 02:00N 59°55' E 025°30'6387.5
2019-Sep-15 02:00N 59°54' E 025°42'3 6.8 210 / 221008.110.8 11.8 2.019.0
2019-Sep-15 01:30N 59°55' E 025°48'917.6
2019-Sep-15 01:00N 59°57' E 026°06'817.5
2019-Sep-15 00:31N 59°60' E 026°22'917.3
2019-Sep-15 00:00N 60°01' E 026°39'917.5
2019-Sep-14 23:31N 59°60' E 026°56'816.8
2019-Sep-14 23:01N 60°02' E 027°12'917.6
2019-Sep-14 22:31N 60°06' E 027°27'917.6
2019-Sep-14 22:00N 60°11' E 027°42'816.6
2019-Sep-14 21:31N 60°11' E 027°59'917.3
2019-Sep-14 21:01N 60°08' E 028°15'917.0
2019-Sep-14 20:30N 60°04' E 028°30'816.9
2019-Sep-14 20:00N 60°03' E 028°46'1717.2
2019-Sep-14 19:02N 60°02' E 029°20'117.3
2019-Sep-14 19:00N 60°02' E 029°21'611.2
2019-Sep-14 18:30N 60°01' E 029°32'612.0
2019-Sep-14 18:00N 59°59' E 029°43'510.7
2019-Sep-14 17:31N 59°57' E 029°53'510.6
2019-Sep-14 17:01N 59°56' E 030°03'4 8.6
2019-Sep-14 16:31N 59°57' E 030°11'0 0.2
2019-Sep-14 15:58N 59°57' E 030°12'0 0.0
2019-Sep-14 15:28N 59°57' E 030°12'0 0.0
2019-Sep-14 14:58N 59°57' E 030°12'0 0.0
2019-Sep-14 14:28N 59°57' E 030°12'0 0.0
2019-Sep-14 13:58N 59°57' E 030°12'0 0.0
2019-Sep-14 13:28N 59°57' E 030°12'0 0.0
2019-Sep-14 12:58N 59°57' E 030°12'0 0.0
2019-Sep-14 12:28N 59°57' E 030°12'0 0.0
2019-Sep-14 11:58N 59°57' E 030°12'0 0.0
2019-Sep-14 11:28N 59°57' E 030°12'0 0.0
2019-Sep-14 10:58N 59°57' E 030°12'0 0.0
2019-Sep-14 10:28N 59°57' E 030°12'0 0.0
2019-Sep-14 09:55N 59°57' E 030°12'0 0.0
2019-Sep-14 09:28N 59°57' E 030°12'0 0.0
2019-Sep-14 08:58N 59°57' E 030°12'0 0.0
2019-Sep-14 08:28N 59°57' E 030°12'0 0.0
2019-Sep-14 07:58N 59°57' E 030°12'0 0.0
2019-Sep-14 07:28N 59°57' E 030°12'0 0.0
2019-Sep-14 06:58N 59°57' E 030°12'0 0.0
2019-Sep-14 06:28N 59°57' E 030°12'0 0.0
2019-Sep-14 05:58N 59°57' E 030°12'0 0.0
2019-Sep-14 05:28N 59°57' E 030°12'0 0.0
2019-Sep-14 04:58N 59°57' E 030°12'0 0.0
2019-Sep-14 04:28N 59°57' E 030°12'0 0.0
2019-Sep-14 03:58N 59°57' E 030°12'0 0.0
2019-Sep-14 03:28N 59°57' E 030°12'0 0.0
2019-Sep-14 02:58N 59°57' E 030°12'0 0.0
2019-Sep-14 02:28N 59°57' E 030°12'0 0.0
2019-Sep-14 01:58N 59°57' E 030°12'0 0.0
2019-Sep-14 01:28N 59°57' E 030°12'0 0.0
2019-Sep-14 00:58N 59°57' E 030°12'0 0.0
2019-Sep-14 00:28N 59°57' E 030°12'0 0.0
2019-Sep-13 23:58N 59°57' E 030°12'0 0.0
2019-Sep-13 23:28N 59°57' E 030°12'0 0.0
2019-Sep-13 22:58N 59°57' E 030°12'0 0.0
2019-Sep-13 22:28N 59°57' E 030°12'0 0.0
2019-Sep-13 21:58N 59°57' E 030°12'0 0.0
2019-Sep-13 21:28N 59°57' E 030°12'0 0.0
2019-Sep-13 20:58N 59°57' E 030°12'0 0.0
2019-Sep-13 20:28N 59°57' E 030°12'0 0.0
2019-Sep-13 19:58N 59°57' E 030°12'0 0.0
2019-Sep-13 19:28N 59°57' E 030°12'0 0.0
2019-Sep-13 18:58N 59°57' E 030°12'0 0.0
2019-Sep-13 18:28N 59°57' E 030°12'0 0.0
2019-Sep-13 17:58N 59°57' E 030°12'0 0.0
2019-Sep-13 17:28N 59°57' E 030°12'0 0.0
2019-Sep-13 16:58N 59°57' E 030°12'0 0.0
2019-Sep-13 16:28N 59°57' E 030°12'0 0.0
2019-Sep-13 15:58N 59°57' E 030°12'0 0.0
2019-Sep-13 15:28N 59°57' E 030°12'0 0.0
2019-Sep-13 14:58N 59°57' E 030°12'0 0.0
2019-Sep-13 14:28N 59°57' E 030°12'0 0.0
2019-Sep-13 13:58N 59°57' E 030°12'0 0.0
2019-Sep-13 13:28N 59°57' E 030°12'0 0.0
2019-Sep-13 12:58N 59°57' E 030°12'0 0.0
2019-Sep-13 12:28N 59°57' E 030°12'0 0.0
2019-Sep-13 11:58N 59°57' E 030°12'0 0.0
2019-Sep-13 11:28N 59°57' E 030°12'0 0.0
2019-Sep-13 10:58N 59°57' E 030°12'0 0.0
2019-Sep-13 10:28N 59°57' E 030°12'0 0.0
2019-Sep-13 09:58N 59°57' E 030°12'0 0.0
2019-Sep-13 09:28N 59°57' E 030°12'0 0.0
2019-Sep-13 08:58N 59°57' E 030°12'0 0.0
2019-Sep-13 08:28N 59°57' E 030°12'0 0.0
2019-Sep-13 07:58N 59°57' E 030°12'0 0.0
2019-Sep-13 07:28N 59°57' E 030°12'0 0.0
2019-Sep-13 06:58N 59°57' E 030°12'0 0.0
2019-Sep-13 06:28N 59°57' E 030°12'0 0.0
2019-Sep-13 05:58N 59°57' E 030°12'0 0.0
2019-Sep-13 05:28N 59°57' E 030°12'0 0.0
2019-Sep-13 04:58N 59°57' E 030°12'0 0.0
2019-Sep-13 04:28N 59°57' E 030°12'0 0.0
2019-Sep-13 03:59N 59°57' E 030°12'1 1.9
2019-Sep-13 03:30N 59°57' E 030°10'4 8.3
2019-Sep-13 03:00N 59°56' E 030°02'5 9.3
2019-Sep-13 02:30N 59°57' E 029°53'10 9.8
2019-Sep-13 01:30N 60°01' E 029°35'5 9.8
2019-Sep-13 01:00N 60°01' E 029°25'510.6
2019-Sep-13 00:30N 60°01' E 029°14'713.6
2019-Sep-13 00:00N 60°01' E 029°01'817.0
2019-Sep-12 23:30N 60°02' E 028°44'714.4
2019-Sep-12 23:00N 60°03' E 028°30'713.6
2019-Sep-12 22:30N 60°06' E 028°18'713.8
2019-Sep-12 22:00N 60°09' E 028°05'713.9
2019-Sep-12 21:30N 60°10' E 027°52'713.4
2019-Sep-12 21:00N 60°08' E 027°39'714.4
2019-Sep-12 20:30N 60°05' E 027°26'714.4
2019-Sep-12 20:00N 60°01' E 027°14'714.4
2019-Sep-12 19:30N 59°58' E 027°01'714.7
2019-Sep-12 19:00N 59°59' E 026°46'714.5
2019-Sep-12 18:31N 59°59' E 026°32'815.0
2019-Sep-12 18:00N 59°56' E 026°18'1014.9
2019-Sep-12 17:19N 59°53' E 025°58'514.7
2019-Sep-12 16:59N 59°52' E 025°49'714.9
2019-Sep-12 16:30N 59°50' E 025°35'715.0
2019-Sep-12 16:01N 59°49' E 025°20'181055.0
2019-Sep-12 16:00N 59°42' E 024°48'1021.0 250 / 301011.910.8 19.8 9.719.0
2019-Sep-12 15:30N 59°47' E 025°05'815.4
2019-Sep-12 15:00N 59°43' E 024°52'2150.0
2019-Sep-12 15:00N 59°42' E 024°48'510.7 050 / 351011.910.8 19.8 9.719.0
2019-Sep-12 14:30N 59°38' E 024°41'714.5
2019-Sep-12 14:01N 59°31' E 024°45'7415.6
2019-Sep-12 14:00N 59°24' E 024°42'4 7.2 240 / 331011.910.8 19.8 9.719.0
2019-Sep-12 13:30N 59°27' E 024°46'0 0.0
2019-Sep-12 13:00N 59°27' E 024°46'0 0.0
2019-Sep-12 12:30N 59°27' E 024°46'0 0.0
2019-Sep-12 12:00N 59°27' E 024°46'0 0.0
2019-Sep-12 11:30N 59°27' E 024°46'0 0.0
2019-Sep-12 11:00N 59°27' E 024°46'0 0.0
2019-Sep-12 10:30N 59°27' E 024°46'0 0.0
2019-Sep-12 10:00N 59°27' E 024°46'0 0.0
2019-Sep-12 09:30N 59°27' E 024°46'0 0.0
2019-Sep-12 09:00N 59°27' E 024°46'0 0.0
2019-Sep-12 08:30N 59°27' E 024°46'0 0.0
2019-Sep-12 08:00N 59°27' E 024°46'0 0.0
2019-Sep-12 07:30N 59°27' E 024°46'0 0.0
2019-Sep-12 07:00N 59°27' E 024°46'0 0.0
2019-Sep-12 06:30N 59°27' E 024°46'0 0.0
2019-Sep-12 06:00N 59°27' E 024°46'0 0.0
2019-Sep-12 05:30N 59°27' E 024°46'0 0.0
2019-Sep-12 05:00N 59°27' E 024°46'0 0.2
2019-Sep-12 04:30N 59°27' E 024°46'2 3.8
2019-Sep-12 04:01N 59°29' E 024°45'611.9
2019-Sep-12 03:30N 59°30' E 024°34'714.1
2019-Sep-12 03:01N 59°30' E 024°20'815.8
2019-Sep-12 02:30N 59°28' E 024°05'1223.8
2019-Sep-12 02:00N 59°24' E 023°42'444.0 210 / 361012.010.8 16.5 6.619.0
2019-Sep-12 01:54N 59°28' E 023°44'16516.6
2019-Sep-11 16:00N 57°42' E 019°42'15 7.7 230 / 221013.810.8 18.4 5.618.0
2019-Sep-11 14:00N 57°30' E 019°24'8522.0 230 / 221013.810.8 18.4 5.618.0
2019-Sep-11 10:08N 56°26' E 017°41'217.9
2019-Sep-11 09:59N 56°24' E 017°38'1117.9
2019-Sep-11 09:24N 56°18' E 017°22'818.0
2019-Sep-11 08:56N 56°13' E 017°10'817.8
2019-Sep-11 08:30N 56°09' E 016°59'917.8
2019-Sep-11 08:01N 56°03' E 016°46'917.8
2019-Sep-11 07:31N 55°58' E 016°33'917.6
2019-Sep-11 07:01N 55°53' E 016°20'917.7
2019-Sep-11 06:31N 55°49' E 016°07'917.9
2019-Sep-11 06:01N 55°44' E 015°54'918.0
2019-Sep-11 05:31N 55°40' E 015°39'917.7
2019-Sep-11 05:01N 55°36' E 015°25'7430.2
2019-Sep-11 05:00N 55°30' E 015°18'4 9.1 260 / 291013.3 5.4 15.6 8.619.5
2019-Sep-11 04:31N 55°32' E 015°11'917.4
2019-Sep-11 04:00N 55°28' E 014°57'917.4
2019-Sep-11 03:30N 55°25' E 014°43'3363.8
2019-Sep-11 03:00N 55°00' E 014°06'   260 / 281013.110.8 16.1 18.5

Dump ship's entire track history